logo
Rechercher aéroport 
image banner adimage banner adimage banner ad
image banner ad

NVVW - Tanna

Situé à Lenakel, Vanuatu

ICAO - NVVW, IATA - TAH

Données fournies par Airmate  

Information générale

Coordonnées: S19°27'18" E169°13'24"
Élévation : 27 feet MSL.
 
Voir autres Aéroports à Tafea

Données opérationnelles

Special qualification required
Heure actuelle UTC:
Heure actuelle locale:
Météo
METAR: NVVW 222300Z 18005KT 9999 SCT018 OVC110 24/23 Q1014
TAF: TAF NVVW 222300Z 2300/2324 15010KT 9999 FEW010 BKN018 OVC110 INTER 2300/2306 5000 RA SCT005 BKN015 OVC090
Voir NOTAMs / SUP AIP / TFR affectant cet aéroport [VIEW]
Fréquences de communication: [VIEW]

Pistes:

Identifiant RWYQFULongueur (ft)Largeur (ft)SurfaceLDA (ft)
15145°403598ASP
33325°403598ASP

Coordonnées de l'aéroport

Adresse: Lenakel Vanuatu

Vue satellite de NVVW